Time;durP1;ratioP1;P1;durP2;ratioP2;P2;SDS_P1;SDS_P2;PMS_P1;PMS_P2;Temp;Humidity;BMP_temperature;BMP_pressure;BME280_temperature;BME280_humidity;BME280_pressure;Samples;Min_cycle;Max_cycle;Signal;HPM_P1;HPM_P2
2022/12/11 00:00:04;;;;;;;31.48;13.32;;;1.50;99.90;;;;;;5144547;28;20337;-63
2022/12/11 00:03:35;;;;;;;32.47;13.18;;;1.40;99.90;;;;;;5140483;28;20038;-61
2022/12/11 00:06:12;;;;;;;31.67;13.52;;;1.40;99.90;;;;;;5140656;28;20064;-62
2022/12/11 00:09:39;;;;;;;28.70;12.43;;;1.40;99.90;;;;;;5120588;28;20053;-61
2022/12/11 00:12:13;;;;;;;27.70;11.55;;;1.40;99.90;;;;;;5122378;28;20061;-63
2022/12/11 00:14:51;;;;;;;27.13;11.07;;;1.30;99.90;;;;;;5159263;28;20049;-63
2022/12/11 00:17:28;;;;;;;28.02;12.63;;;1.30;99.90;;;;;;5146421;28;20058;-61
2022/12/11 00:20:08;;;;;;;26.90;10.98;;;1.30;99.90;;;;;;5136134;28;20034;-62
2022/12/11 00:22:46;;;;;;;33.50;13.77;;;1.40;99.90;;;;;;5120348;28;20056;-61
2022/12/11 00:25:17;;;;;;;27.52;11.40;;;1.30;99.90;;;;;;5121137;28;20043;-61
2022/12/11 00:27:53;;;;;;;31.83;13.75;;;1.30;99.90;;;;;;5154830;28;20485;-62
2022/12/11 00:30:27;;;;;;;27.25;12.85;;;1.20;99.90;;;;;;5121551;28;20350;-61
2022/12/11 00:33:00;;;;;;;34.65;13.57;;;1.30;99.90;;;;;;5152854;28;20046;-60
2022/12/11 00:35:44;;;;;;;23.52;12.05;;;1.30;99.90;;;;;;5152548;28;20065;-62
2022/12/11 00:38:23;;;;;;;32.63;13.27;;;1.30;99.90;;;;;;5132515;28;20057;-61
2022/12/11 00:41:08;;;;;;;27.30;11.48;;;1.30;99.90;;;;;;5168714;28;20247;-62
2022/12/11 00:43:42;;;;;;;25.08;12.50;;;1.30;99.90;;;;;;5171021;28;20027;-61
2022/12/11 00:46:16;;;;;;;;;;;1.30;99.90;;;;;;5173063;28;20232;-60
2022/12/11 00:48:50;;;;;;;26.25;13.27;;;1.30;99.90;;;;;;5154030;28;19914;-61
2022/12/11 00:51:22;;;;;;;;;;;1.30;99.90;;;;;;5152393;28;20043;-60
2022/12/11 00:54:00;;;;;;;24.92;11.57;;;1.30;99.90;;;;;;5152556;28;19928;-61
2022/12/11 00:56:39;;;;;;;23.77;10.70;;;1.30;99.90;;;;;;5137026;28;20033;-62
2022/12/11 00:59:16;;;;;;;20.55;11.35;;;1.30;99.90;;;;;;5152259;28;20042;-62
2022/12/11 01:01:50;;;;;;;28.13;11.23;;;1.30;99.90;;;;;;5194451;23;20062;-73
2022/12/11 01:04:27;;;;;;;29.85;11.48;;;1.30;99.90;;;;;;5183193;28;20121;-72
2022/12/11 01:07:07;;;;;;;23.80;10.50;;;1.40;99.90;;;;;;5192587;28;20048;-71
2022/12/11 01:12:40;;;;;;;30.42;12.15;;;1.30;99.90;;;;;;5191238;28;20042;-73
2022/12/11 01:15:14;;;;;;;25.52;12.13;;;1.30;99.90;;;;;;5166520;28;20060;-73
2022/12/11 01:17:51;;;;;;;40.60;14.43;;;1.30;99.90;;;;;;5160219;28;20152;-73
2022/12/11 01:20:29;;;;;;;30.10;13.30;;;1.30;99.90;;;;;;5192839;28;20033;-73
2022/12/11 01:23:04;;;;;;;25.70;11.48;;;1.20;99.90;;;;;;5188382;28;20044;-71
2022/12/11 01:25:51;;;;;;;23.55;11.25;;;1.20;99.90;;;;;;5206636;28;20048;-72
2022/12/11 01:28:26;;;;;;;31.50;13.40;;;1.20;99.90;;;;;;5176458;28;20036;-73
2022/12/11 01:31:00;;;;;;;25.95;12.35;;;1.20;99.90;;;;;;5176251;28;20052;-72
2022/12/11 01:33:34;;;;;;;25.15;12.10;;;1.10;99.90;;;;;;5155852;28;20334;-72
2022/12/11 01:36:17;;;;;;;24.23;11.25;;;1.10;99.90;;;;;;5192414;28;20322;-73
2022/12/11 01:38:57;;;;;;;22.95;11.00;;;1.10;99.90;;;;;;5159814;28;20037;-73
2022/12/11 01:41:39;;;;;;;30.80;12.20;;;1.00;99.90;;;;;;5191948;28;20322;-70
2022/12/11 01:44:16;;;;;;;21.33;10.82;;;1.00;99.90;;;;;;5188888;28;20322;-74
2022/12/11 01:46:47;;;;;;;28.77;12.90;;;1.00;99.90;;;;;;5175665;28;20046;-74
2022/12/11 01:49:27;;;;;;;27.58;12.27;;;1.00;99.90;;;;;;5209784;28;20315;-73
2022/12/11 01:52:11;;;;;;;20.63;9.40;;;1.00;99.90;;;;;;5209233;28;20243;-73
2022/12/11 01:54:46;;;;;;;27.25;12.13;;;1.00;99.90;;;;;;5200808;28;20042;-73
2022/12/11 01:57:24;;;;;;;24.05;10.75;;;1.00;99.90;;;;;;5173044;28;20038;-72
2022/12/11 02:00:06;;;;;;;21.50;10.48;;;1.00;99.90;;;;;;5189035;28;20106;-73
2022/12/11 02:02:39;;;;;;;25.70;11.57;;;1.00;99.90;;;;;;5196692;28;20054;-73
2022/12/11 02:05:11;;;;;;;30.05;12.40;;;1.00;99.90;;;;;;5193650;28;20061;-74
2022/12/11 02:08:04;;;;;;;23.52;10.85;;;1.00;99.90;;;;;;5167099;28;20042;-71
2022/12/11 02:11:14;;;;;;;24.40;11.93;;;1.00;99.90;;;;;;5191615;28;20043;-71
2022/12/11 02:14:05;;;;;;;18.75;9.98;;;1.00;99.90;;;;;;5173759;28;20042;-75
2022/12/11 02:16:57;;;;;;;19.52;9.93;;;1.00;99.90;;;;;;5189650;28;20052;-74
2022/12/11 02:19:58;;;;;;;15.85;8.00;;;1.00;99.90;;;;;;5157601;28;20038;-75
2022/12/11 02:23:14;;;;;;;22.83;10.77;;;1.00;99.90;;;;;;5157506;28;20045;-73
2022/12/11 02:26:18;;;;;;;19.88;9.50;;;1.00;99.90;;;;;;5158317;28;20330;-75
2022/12/11 02:28:54;;;;;;;22.02;9.27;;;1.00;99.90;;;;;;5201365;28;20038;-74
2022/12/11 02:31:56;;;;;;;18.52;9.43;;;1.00;99.90;;;;;;5177033;28;20033;-73
2022/12/11 02:34:42;;;;;;;19.10;9.77;;;1.00;99.90;;;;;;5190629;28;20034;-74
2022/12/11 02:37:26;;;;;;;18.25;8.50;;;1.00;99.90;;;;;;5203875;28;20046;-74
2022/12/11 02:40:00;;;;;;;;;;;0.90;99.90;;;;;;5175285;28;20315;-72
2022/12/11 02:42:34;;;;;;;24.50;10.05;;;0.90;99.90;;;;;;5190405;28;19918;-75
2022/12/11 02:45:12;;;;;;;19.40;9.63;;;0.90;99.90;;;;;;5204779;28;20046;-74
2022/12/11 02:47:52;;;;;;;22.92;9.85;;;0.90;99.90;;;;;;5175028;28;20038;-74
2022/12/11 02:50:32;;;;;;;16.60;9.15;;;0.90;99.90;;;;;;5174453;28;20050;-73
2022/12/11 02:53:17;;;;;;;14.35;7.97;;;0.90;99.90;;;;;;5173029;28;20542;-72
2022/12/11 02:56:05;;;;;;;16.80;7.60;;;0.90;99.90;;;;;;5175733;28;20484;-75
2022/12/11 02:58:50;;;;;;;15.60;7.90;;;1.00;99.90;;;;;;5184603;28;20030;-73
2022/12/11 03:01:27;;;;;;;11.67;6.63;;;1.00;99.90;;;;;;5029744;28;4216824;-73
2022/12/11 03:04:04;;;;;;;15.75;8.95;;;1.00;99.90;;;;;;5180327;28;20052;-75
2022/12/11 03:06:44;;;;;;;18.40;9.50;;;1.00;99.90;;;;;;5158130;28;20230;-72
2022/12/11 03:09:21;;;;;;;13.02;7.55;;;1.00;99.90;;;;;;5163574;28;20046;-73
2022/12/11 03:11:55;;;;;;;15.10;7.57;;;1.00;99.90;;;;;;5196290;28;20034;-73
2022/12/11 03:14:29;;;;;;;14.00;6.32;;;1.00;99.90;;;;;;5186455;28;20238;-73
2022/12/11 03:17:19;;;;;;;13.40;6.68;;;1.00;99.90;;;;;;5174383;28;20042;-73
2022/12/11 03:20:22;;;;;;;11.02;7.00;;;1.00;99.90;;;;;;5140526;28;20046;-75
2022/12/11 03:23:34;;;;;;;10.70;6.20;;;1.10;99.90;;;;;;5164709;28;20326;-72
2022/12/11 03:26:17;;;;;;;10.20;5.20;;;1.10;99.90;;;;;;5158942;28;20048;-72
2022/12/11 03:29:05;;;;;;;9.03;4.57;;;1.20;99.90;;;;;;5190932;28;20038;-73
2022/12/11 03:32:15;;;;;;;9.07;4.05;;;1.20;99.90;;;;;;5188139;28;20025;-71
2022/12/11 03:35:21;;;;;;;7.68;4.75;;;1.30;99.90;;;;;;5164788;28;20061;-70
2022/12/11 03:37:59;;;;;;;6.82;4.63;;;1.30;99.90;;;;;;5150853;28;20038;-70
2022/12/11 03:40:35;;;;;;;7.93;4.28;;;1.20;99.90;;;;;;5157114;28;20044;-70
2022/12/11 03:43:09;;;;;;;11.07;6.78;;;1.20;99.90;;;;;;5158502;28;20050;-70
2022/12/11 03:45:47;;;;;;;8.77;5.20;;;1.20;99.90;;;;;;5157391;28;20046;-70
2022/12/11 03:48:22;;;;;;;16.02;6.35;;;1.10;99.90;;;;;;5187989;28;20052;-70
2022/12/11 03:51:01;;;;;;;7.68;4.78;;;1.10;99.90;;;;;;5174825;28;20038;-70
2022/12/11 03:53:37;;;;;;;13.40;7.05;;;1.10;99.90;;;;;;5184524;28;20034;-71
2022/12/11 03:56:15;;;;;;;9.52;5.20;;;1.10;99.90;;;;;;5170149;28;20230;-71
2022/12/11 03:58:49;;;;;;;9.77;5.82;;;1.10;99.90;;;;;;5186270;28;20037;-72
2022/12/11 04:01:26;;;;;;;;;;;1.10;99.90;;;;;;5160067;28;20340;-71
2022/12/11 04:04:00;;;;;;;10.52;5.57;;;1.10;99.90;;;;;;5167769;28;19920;-71
2022/12/11 04:06:34;;;;;;;9.32;5.53;;;1.10;99.90;;;;;;5179674;28;20064;-71
2022/12/11 04:09:10;;;;;;;10.30;6.40;;;1.10;99.90;;;;;;5194325;28;20372;-71
2022/12/11 04:11:44;;;;;;;13.10;6.68;;;1.10;99.90;;;;;;5177177;28;20037;-71
2022/12/11 04:24:13;;;;;;;12.25;6.28;;;1.10;99.90;;;;;;5176219;28;20072;-71
2022/12/11 04:25:56;;;;;;;12.35;5.38;;;1.00;99.90;;;;;;5179384;28;20061;-70
2022/12/11 04:28:31;;;;;;;11.43;6.60;;;1.00;99.90;;;;;;5190177;28;20523;-70
2022/12/11 04:31:04;;;;;;;12.45;6.47;;;0.90;99.90;;;;;;5187756;28;20213;-69
2022/12/11 04:33:38;;;;;;;9.38;5.88;;;0.90;99.90;;;;;;5208013;28;20041;-69
2022/12/11 04:36:14;;;;;;;8.57;5.85;;;0.80;99.90;;;;;;5175390;28;20033;-69
2022/12/11 04:38:51;;;;;;;8.38;4.72;;;0.80;99.90;;;;;;5172307;28;20050;-69
2022/12/11 04:41:29;;;;;;;11.05;4.90;;;0.80;99.90;;;;;;5173146;28;20050;-69
2022/12/11 04:44:03;;;;;;;7.68;4.97;;;0.80;99.90;;;;;;5156585;28;20349;-71
2022/12/11 04:46:46;;;;;;;7.90;4.28;;;0.70;99.90;;;;;;5201428;28;20046;-69
2022/12/11 04:49:19;;;;;;;10.82;5.85;;;0.70;99.90;;;;;;5173170;28;20048;-71
2022/12/11 04:51:54;;;;;;;7.78;4.80;;;0.60;99.90;;;;;;5187969;28;20048;-73
2022/12/11 04:54:31;;;;;;;9.73;5.32;;;0.60;99.90;;;;;;5174171;28;20038;-69
2022/12/11 04:57:06;;;;;;;8.15;4.55;;;0.50;99.90;;;;;;5159752;28;20042;-68
2022/12/11 04:59:43;;;;;;;8.07;4.95;;;0.50;99.90;;;;;;5157096;28;20225;-68
2022/12/11 05:02:21;;;;;;;7.30;4.15;;;0.50;99.90;;;;;;5166314;28;20229;-70
2022/12/11 05:04:56;;;;;;;9.10;4.30;;;0.50;99.90;;;;;;5177186;28;20322;-70
2022/12/11 05:07:30;;;;;;;12.20;6.30;;;0.40;99.90;;;;;;5176787;28;20064;-70
2022/12/11 05:10:01;;;;;;;;;;;0.30;99.90;;;;;;5177085;28;20249;-71
2022/12/11 05:12:37;;;;;;;12.02;5.65;;;0.30;99.90;;;;;;5175575;28;19916;-72
2022/12/11 05:15:14;;;;;;;10.40;5.90;;;0.30;99.90;;;;;;5186543;28;20051;-71
2022/12/11 05:17:49;;;;;;;11.50;6.65;;;0.30;99.90;;;;;;5192983;28;20034;-70
2022/12/11 05:20:26;;;;;;;11.77;5.78;;;0.20;99.90;;;;;;5192687;28;20356;-69
2022/12/11 05:23:03;;;;;;;12.10;6.18;;;0.20;99.90;;;;;;5189433;28;20038;-70
2022/12/11 05:25:40;;;;;;;9.10;4.72;;;0.30;99.90;;;;;;5170954;28;20049;-75
2022/12/11 05:28:14;;;;;;;9.15;5.38;;;0.30;99.90;;;;;;5170156;28;20377;-71
2022/12/11 05:30:46;;;;;;;9.65;6.25;;;0.30;99.90;;;;;;5156966;28;20022;-71
2022/12/11 05:33:21;;;;;;;14.18;6.55;;;0.40;99.90;;;;;;5185717;28;20253;-71
2022/12/11 05:35:52;;;;;;;11.73;7.18;;;0.40;99.90;;;;;;5190290;28;20048;-72
2022/12/11 05:38:27;;;;;;;12.05;6.35;;;0.30;99.90;;;;;;5193020;28;20036;-72
2022/12/11 05:41:05;;;;;;;11.60;6.35;;;0.40;99.90;;;;;;5189879;28;20056;-71
2022/12/11 05:43:37;;;;;;;12.93;7.43;;;0.40;99.90;;;;;;5205368;28;20038;-72
2022/12/11 05:46:17;;;;;;;11.85;6.82;;;0.40;99.90;;;;;;5166978;28;20242;-71
2022/12/11 05:48:55;;;;;;;14.43;6.95;;;0.30;99.90;;;;;;5173584;28;20030;-71
2022/12/11 05:51:29;;;;;;;15.60;7.07;;;0.40;99.90;;;;;;5155452;28;20073;-71
2022/12/11 05:54:01;;;;;;;12.80;7.85;;;0.40;99.90;;;;;;5165603;28;20034;-70
2022/12/11 05:56:44;;;;;;;14.20;7.97;;;0.40;99.90;;;;;;5159722;28;20046;-71
2022/12/11 05:59:18;;;;;;;15.98;8.48;;;0.40;99.90;;;;;;5160565;28;20048;-72
2022/12/11 06:01:58;;;;;;;17.55;8.90;;;0.50;99.90;;;;;;5182922;28;20048;-73
2022/12/11 06:04:37;;;;;;;13.65;8.18;;;0.50;99.90;;;;;;5165216;28;20042;-72
2022/12/11 06:07:11;;;;;;;12.52;8.13;;;0.50;99.90;;;;;;5170622;28;20045;-72
2022/12/11 06:09:52;;;;;;;17.02;9.18;;;0.50;99.90;;;;;;5189094;28;20034;-72
2022/12/11 06:12:27;;;;;;;14.73;8.57;;;0.50;99.90;;;;;;5189734;28;20049;-72
2022/12/11 06:15:08;;;;;;;19.30;9.65;;;0.50;99.90;;;;;;5185984;28;20513;-72
2022/12/11 06:17:53;;;;;;;14.23;6.95;;;0.50;99.90;;;;;;5175573;28;20036;-73
2022/12/11 06:20:28;;;;;;;13.52;8.35;;;0.50;99.90;;;;;;5160157;28;20218;-73
2022/12/11 06:23:06;;;;;;;17.73;9.40;;;0.50;99.90;;;;;;5192955;28;20037;-73
2022/12/11 06:25:44;;;;;;;14.43;7.45;;;0.60;99.90;;;;;;5205645;28;20034;-73
2022/12/11 06:28:19;;;;;;;18.13;9.10;;;0.60;99.90;;;;;;5177835;28;20044;-73
2022/12/11 06:31:05;;;;;;;15.82;8.63;;;0.60;99.90;;;;;;5178798;28;20042;-72
2022/12/11 06:33:48;;;;;;;14.25;7.65;;;0.60;99.90;;;;;;5177933;28;20038;-72
2022/12/11 06:36:24;;;;;;;16.08;8.27;;;0.60;99.90;;;;;;5164240;28;20053;-72
2022/12/11 06:39:00;;;;;;;17.42;8.65;;;0.70;99.90;;;;;;5179214;28;20052;-70
2022/12/11 06:41:37;;;;;;;17.73;9.60;;;0.70;99.90;;;;;;5180049;28;20036;-71
2022/12/11 06:44:09;;;;;;;14.63;8.48;;;0.70;99.90;;;;;;5176641;28;20254;-71
2022/12/11 06:46:40;;;;;;;13.23;7.72;;;0.70;99.90;;;;;;5177518;28;20057;-69
2022/12/11 06:49:17;;;;;;;15.23;8.20;;;0.70;99.90;;;;;;5193747;28;20052;-76
2022/12/11 06:51:51;;;;;;;15.50;8.02;;;0.70;99.90;;;;;;5163138;28;20048;-71
2022/12/11 06:54:28;;;;;;;;;;;0.70;99.90;;;;;;5190261;28;20052;-70
2022/12/11 06:57:01;;;;;;;13.77;8.65;;;0.70;99.90;;;;;;5184421;28;20267;-70
2022/12/11 06:59:35;;;;;;;10.95;6.60;;;0.70;99.90;;;;;;5195239;28;20021;-70
2022/12/11 07:02:13;;;;;;;;;;;0.70;99.90;;;;;;5194166;28;20114;-71
2022/12/11 07:04:49;;;;;;;20.13;7.70;;;0.70;99.90;;;;;;5177971;28;19914;-67
2022/12/11 07:07:23;;;;;;;12.10;6.65;;;0.70;99.90;;;;;;5181073;28;20566;-70
2022/12/11 07:09:55;;;;;;;10.57;7.10;;;0.70;99.90;;;;;;5174331;28;20037;-70
2022/12/11 07:12:26;;;;;;;10.70;6.28;;;0.70;99.90;;;;;;5178588;28;20042;-69
2022/12/11 07:15:01;;;;;;;11.30;6.88;;;0.70;99.90;;;;;;5189359;28;20036;-67
2022/12/11 07:17:32;;;;;;;15.52;6.78;;;0.70;99.90;;;;;;5187752;28;20042;-66
2022/12/11 07:20:05;;;;;;;13.43;7.45;;;0.70;99.90;;;;;;5177884;28;20034;-67
2022/12/11 07:22:39;;;;;;;12.07;6.97;;;0.70;99.90;;;;;;5189829;28;20047;-67
2022/12/11 07:25:13;;;;;;;9.57;5.78;;;0.70;99.90;;;;;;5178861;28;20068;-67
2022/12/11 07:27:53;;;;;;;10.38;5.97;;;0.70;99.90;;;;;;5173245;28;20051;-67
2022/12/11 07:30:24;;;;;;;12.73;6.13;;;0.70;99.90;;;;;;5174309;28;20042;-68
2022/12/11 07:32:56;;;;;;;14.80;7.20;;;0.70;99.90;;;;;;5182626;28;20029;-68
2022/12/11 07:35:30;;;;;;;12.50;6.80;;;0.70;99.90;;;;;;5175408;28;20044;-68
2022/12/11 07:38:03;;;;;;;8.82;5.85;;;0.70;99.90;;;;;;5187571;28;20050;-69
2022/12/11 07:40:35;;;;;;;12.20;7.22;;;0.70;99.90;;;;;;5191387;28;20360;-69
2022/12/11 07:43:07;;;;;;;13.95;7.45;;;0.70;99.90;;;;;;5191655;28;20044;-67
2022/12/11 07:45:41;;;;;;;11.60;7.25;;;0.70;99.90;;;;;;5200574;28;20046;-74
2022/12/11 07:48:15;;;;;;;;;;;0.70;99.90;;;;;;5178286;28;20036;-69
2022/12/11 07:50:54;;;;;;;11.43;6.07;;;0.70;99.90;;;;;;5209805;28;19924;-69
2022/12/11 07:53:29;;;;;;;9.45;6.47;;;0.80;99.90;;;;;;5177807;28;20040;-67
2022/12/11 07:56:00;;;;;;;13.90;6.53;;;0.80;99.90;;;;;;5192590;28;20046;-73
2022/12/11 07:58:32;;;;;;;9.27;5.25;;;0.80;99.90;;;;;;5194650;28;20188;-74
2022/12/11 08:01:32;;;;;;;15.85;6.28;;;0.80;99.90;;;;;;5187825;28;20215;-73
2022/12/11 08:04:10;;;;;;;11.60;6.85;;;0.90;99.90;;;;;;5186559;28;20049;-73
2022/12/11 08:06:42;;;;;;;10.20;6.07;;;0.90;99.90;;;;;;5145991;28;20593;-73
2022/12/11 08:09:21;;;;;;;13.60;6.63;;;0.90;99.90;;;;;;5188203;28;20234;-73
2022/12/11 08:11:53;;;;;;;9.68;5.63;;;0.90;99.90;;;;;;5188143;28;20438;-73
2022/12/11 08:14:27;;;;;;;13.05;6.13;;;0.90;99.90;;;;;;5171655;28;20053;-73
2022/12/11 08:16:59;;;;;;;19.20;9.65;;;0.90;99.90;;;;;;5203387;28;20029;-72
2022/12/11 08:19:30;;;;;;;551.55;200.27;;;0.90;99.90;;;;;;5183556;28;20036;-71
2022/12/11 08:22:03;;;;;;;156.43;76.68;;;0.90;99.90;;;;;;5190912;28;20387;-74
2022/12/11 08:24:37;;;;;;;447.40;212.93;;;1.00;99.90;;;;;;5184272;28;20041;-74
2022/12/11 08:27:09;;;;;;;;;;;1.00;99.90;;;;;;5181223;28;20042;-73
2022/12/11 08:29:45;;;;;;;140.77;78.05;;;1.00;99.90;;;;;;5159385;28;20087;-72
2022/12/11 08:32:24;;;;;;;54.70;40.63;;;1.00;99.90;;;;;;5188488;28;20331;-72
2022/12/11 08:35:01;;;;;;;23.38;20.35;;;0.90;99.90;;;;;;5199213;28;20038;-72
2022/12/11 08:37:33;;;;;;;10.73;7.03;;;0.90;99.90;;;;;;5212263;28;20034;-73
2022/12/11 08:40:12;;;;;;;13.05;7.30;;;1.00;99.90;;;;;;5191400;28;20217;-66
2022/12/11 08:42:46;;;;;;;8.55;5.57;;;1.00;99.90;;;;;;5187264;28;20042;-66
2022/12/11 08:45:20;;;;;;;13.55;10.20;;;1.00;99.90;;;;;;5150436;28;20042;-66
2022/12/11 08:47:54;;;;;;;13.35;8.80;;;1.00;99.90;;;;;;5187436;28;20235;-65
2022/12/11 08:50:33;;;;;;;11.48;7.07;;;1.10;99.90;;;;;;5191350;28;20048;-63
2022/12/11 08:53:15;;;;;;;7.55;4.38;;;1.10;99.90;;;;;;5176746;28;20043;-64
2022/12/11 08:55:46;;;;;;;8.73;6.22;;;1.20;99.90;;;;;;5171907;28;20071;-64
2022/12/11 08:58:26;;;;;;;7.25;4.72;;;1.20;99.90;;;;;;5165250;28;20038;-64
2022/12/11 09:00:57;;;;;;;9.30;6.50;;;1.20;99.90;;;;;;5188701;28;20037;-64
2022/12/11 09:03:31;;;;;;;10.38;5.97;;;1.30;99.90;;;;;;5201447;28;20052;-65
2022/12/11 09:06:11;;;;;;;8.07;4.60;;;1.30;99.90;;;;;;5170320;28;20057;-68
2022/12/11 09:08:45;;;;;;;7.13;4.28;;;1.30;99.90;;;;;;5167326;28;20040;-65
2022/12/11 09:11:20;;;;;;;11.30;8.65;;;1.30;99.90;;;;;;5172209;28;20042;-68
2022/12/11 09:13:53;;;;;;;10.10;5.22;;;1.20;99.90;;;;;;5156330;28;20060;-67
2022/12/11 09:16:26;;;;;;;12.57;8.90;;;1.20;99.90;;;;;;5177740;28;20038;-67
2022/12/11 09:19:01;;;;;;;7.82;5.60;;;1.20;99.90;;;;;;5181039;28;20029;-68
2022/12/11 09:21:44;;;;;;;9.75;4.88;;;1.40;99.90;;;;;;5190160;28;20052;-67
2022/12/11 09:24:21;;;;;;;9.88;5.63;;;1.40;99.90;;;;;;5173510;28;20044;-68
2022/12/11 09:26:53;;;;;;;6.95;4.85;;;1.30;99.90;;;;;;5191517;28;20048;-68
2022/12/11 09:29:24;;;;;;;12.02;8.25;;;1.40;99.90;;;;;;5190576;28;20036;-69
2022/12/11 09:32:02;;;;;;;7.55;4.78;;;1.50;99.90;;;;;;5189972;28;20079;-67
2022/12/11 09:34:36;;;;;;;7.90;6.20;;;1.40;99.90;;;;;;5191080;28;20322;-69
2022/12/11 09:37:10;;;;;;;8.60;5.22;;;1.60;99.90;;;;;;5191961;28;20052;-68
2022/12/11 09:39:43;;;;;;;7.90;5.88;;;1.80;99.90;;;;;;5194365;28;20042;-67
2022/12/11 09:42:29;;;;;;;9.43;4.82;;;1.90;99.90;;;;;;5178289;28;20075;-68
2022/12/11 09:45:03;;;;;;;6.65;3.60;;;2.00;99.90;;;;;;5178187;28;20049;-68
2022/12/11 09:47:40;;;;;;;;;;;1.90;99.90;;;;;;5159316;28;20034;-69
2022/12/11 09:50:27;;;;;;;8.63;5.35;;;2.00;99.90;;;;;;5191233;28;19917;-70
2022/12/11 09:53:09;;;;;;;7.07;4.07;;;1.80;99.90;;;;;;5156216;28;20042;-69
2022/12/11 09:56:08;;;;;;;9.13;4.60;;;1.80;99.90;;;;;;5163672;28;20041;-69
2022/12/11 09:59:00;;;;;;;8.52;4.50;;;1.80;99.90;;;;;;5174878;28;20051;-70
2022/12/11 10:02:23;;;;;;;9.18;4.90;;;1.90;99.90;;;;;;5201177;28;20056;-70
2022/12/11 10:05:31;;;;;;;10.27;4.78;;;2.00;99.90;;;;;;5094971;28;20060;-69
2022/12/11 10:08:20;;;;;;;6.10;4.38;;;1.90;99.90;;;;;;5084744;29;20056;-68
2022/12/11 10:11:32;;;;;;;11.52;7.35;;;1.70;99.90;;;;;;5116203;29;20027;-68
2022/12/11 10:14:34;;;;;;;26.20;17.50;;;2.00;99.90;;;;;;5112169;29;20043;-70
2022/12/11 10:17:26;;;;;;;9.48;6.72;;;2.60;99.90;;;;;;5111915;29;20039;-70
2022/12/11 10:20:16;;;;;;;9.32;6.72;;;2.70;99.90;;;;;;5111148;29;20216;-68
2022/12/11 10:22:55;;;;;;;19.38;16.60;;;3.00;99.90;;;;;;5097301;29;20046;-69
2022/12/11 10:25:40;;;;;;;21.65;17.92;;;3.30;99.90;;;;;;5112093;29;20053;-67
2022/12/11 10:28:21;;;;;;;15.88;12.60;;;3.20;99.90;;;;;;5110880;29;20043;-68
2022/12/11 10:31:29;;;;;;;9.45;6.25;;;3.30;99.90;;;;;;5119971;29;20209;-69
2022/12/11 10:34:23;;;;;;;8.95;6.00;;;3.50;99.90;;;;;;5048645;29;20059;-71
2022/12/11 10:36:57;;;;;;;8.35;5.00;;;3.10;99.90;;;;;;5049447;29;20226;-71
2022/12/11 10:39:30;;;;;;;10.60;6.55;;;2.70;99.90;;;;;;5020858;29;20366;-71
2022/12/11 10:42:19;;;;;;;7.55;4.80;;;3.00;99.90;;;;;;5097278;29;20055;-73
2022/12/11 10:45:03;;;;;;;8.57;4.47;;;2.60;99.90;;;;;;5082902;29;20048;-73
2022/12/11 10:47:38;;;;;;;6.13;4.32;;;2.40;99.90;;;;;;5111005;29;20043;-72
2022/12/11 10:50:28;;;;;;;9.40;3.53;;;2.30;99.90;;;;;;5073692;29;20362;-70
2022/12/11 10:53:10;;;;;;;7.47;4.13;;;2.20;99.90;;;;;;5081014;29;20032;-71
2022/12/11 10:55:47;;;;;;;5.88;3.90;;;2.10;99.90;;;;;;5076259;29;20169;-71
2022/12/11 10:58:23;;;;;;;6.55;3.55;;;2.30;99.90;;;;;;5078295;29;20040;-71
2022/12/11 11:01:18;;;;;;;5.65;3.40;;;2.00;99.90;;;;;;5062848;29;20345;-71
2022/12/11 11:03:56;;;;;;;;;;;1.90;99.90;;;;;;5096239;29;20313;-71
2022/12/11 11:06:37;;;;;;;6.13;3.63;;;1.90;99.90;;;;;;5104171;29;19914;-72
2022/12/11 11:09:53;;;;;;;7.93;3.67;;;1.90;99.90;;;;;;5098080;29;20051;-72
2022/12/11 11:12:29;;;;;;;;;;;2.00;99.90;;;;;;5083090;29;20049;-73
2022/12/11 11:15:06;;;;;;;7.93;3.20;;;1.90;99.90;;;;;;5100363;28;19932;-74
2022/12/11 11:17:55;;;;;;;6.70;3.80;;;2.10;99.90;;;;;;5128658;28;20050;-71
2022/12/11 11:20:34;;;;;;;5.47;3.50;;;1.90;99.90;;;;;;5104153;29;20043;-72
2022/12/11 11:23:16;;;;;;;6.32;4.07;;;1.90;99.90;;;;;;5128750;28;20046;-71
2022/12/11 11:26:00;;;;;;;4.88;3.50;;;1.70;99.90;;;;;;5133381;28;20035;-72
2022/12/11 11:28:40;;;;;;;8.55;3.97;;;1.80;99.90;;;;;;5117298;29;20050;-72
2022/12/11 11:31:14;;;;;;;6.50;4.03;;;1.80;99.90;;;;;;5103959;28;20342;-72
2022/12/11 11:34:01;;;;;;;;;;;1.80;99.90;;;;;;5126692;28;20087;-71
2022/12/11 11:36:37;;;;;;;5.15;3.78;;;1.80;99.90;;;;;;5142691;28;19918;-72
2022/12/11 11:39:43;;;;;;;7.32;3.97;;;1.80;99.90;;;;;;5147737;28;20061;-72
2022/12/11 11:42:55;;;;;;;8.63;4.32;;;1.80;99.90;;;;;;5136558;28;20050;-73
2022/12/11 11:45:41;;;;;;;4.72;3.80;;;1.90;99.90;;;;;;5148438;28;20046;-72
2022/12/11 11:48:47;;;;;;;7.28;4.45;;;1.80;99.90;;;;;;5140384;28;20064;-72
2022/12/11 11:51:33;;;;;;;5.72;3.47;;;1.80;99.90;;;;;;5159335;28;20192;-73
2022/12/11 11:54:48;;;;;;;11.18;4.40;;;1.60;99.90;;;;;;5176968;28;20052;-73
2022/12/11 11:57:46;;;;;;;8.63;4.82;;;1.50;99.90;;;;;;5193851;28;20037;-73
2022/12/11 12:00:25;;;;;;;7.18;4.80;;;1.60;99.90;;;;;;5191747;28;20044;-73
2022/12/11 12:03:22;;;;;;;6.68;3.00;;;1.70;99.90;;;;;;5189122;28;20056;-71
2022/12/11 12:06:24;;;;;;;3.78;2.53;;;1.60;99.90;;;;;;5199369;28;20331;-71
2022/12/11 12:10:00;;;;;;;5.43;3.42;;;1.50;99.90;;;;;;5200299;28;20024;-71
2022/12/11 12:12:40;;;;;;;5.43;2.95;;;1.50;99.90;;;;;;5131790;28;20046;-71
2022/12/11 12:15:39;;;;;;;4.93;3.05;;;1.60;99.90;;;;;;5134656;28;20039;-71
2022/12/11 12:18:22;;;;;;;4.22;2.83;;;1.70;99.90;;;;;;5181427;28;20392;-74
2022/12/11 12:21:17;;;;;;;4.78;3.05;;;1.50;99.90;;;;;;5177146;28;20315;-71
2022/12/11 12:24:22;;;;;;;5.55;2.85;;;1.50;99.90;;;;;;5209837;28;20217;-71
2022/12/11 12:27:25;;;;;;;5.30;2.97;;;1.40;99.90;;;;;;5165714;28;20046;-71
2022/12/11 12:30:32;;;;;;;5.70;4.15;;;1.40;99.90;;;;;;5190265;28;20046;-71
2022/12/11 12:33:51;;;;;;;11.50;9.35;;;1.40;99.90;;;;;;5187639;28;20042;-72
2022/12/11 12:36:54;;;;;;;6.88;3.65;;;1.40;99.90;;;;;;5145724;28;20060;-71
2022/12/11 12:39:34;;;;;;;5.63;3.35;;;1.40;99.90;;;;;;5200254;28;20049;-70
2022/12/11 12:42:39;;;;;;;5.95;3.65;;;1.30;99.90;;;;;;5191843;28;20076;-70
2022/12/11 12:45:13;;;;;;;5.67;2.43;;;1.30;99.90;;;;;;5194742;28;20048;-71
2022/12/11 12:47:47;;;;;;;5.82;4.15;;;1.40;99.90;;;;;;5151523;28;20049;-71
2022/12/11 12:50:27;;;;;;;14.88;13.23;;;1.40;99.90;;;;;;5192239;28;20034;-71
2022/12/11 12:53:01;;;;;;;6.80;4.80;;;1.40;99.90;;;;;;5159454;28;20054;-71
2022/12/11 12:55:34;;;;;;;10.95;7.32;;;1.70;99.90;;;;;;5133319;28;20351;-71
2022/12/11 12:58:21;;;;;;;13.63;6.63;;;1.50;99.90;;;;;;5172514;28;20060;-71
2022/12/11 13:01:15;;;;;;;11.15;6.18;;;1.30;99.90;;;;;;5182323;28;20036;-71
2022/12/11 13:04:02;;;;;;;13.77;5.53;;;1.20;99.90;;;;;;5189145;28;20072;-71
2022/12/11 13:06:44;;;;;;;10.80;7.10;;;1.30;99.90;;;;;;5122537;28;20049;-71
2022/12/11 13:09:23;;;;;;;22.75;12.73;;;1.10;99.90;;;;;;5182728;28;20053;-71
2022/12/11 13:12:03;;;;;;;11.98;7.47;;;1.10;99.90;;;;;;5162622;28;20156;-71
2022/12/11 13:14:40;;;;;;;12.50;7.13;;;1.20;99.90;;;;;;5173721;28;20034;-72
2022/12/11 13:17:21;;;;;;;18.95;10.43;;;1.30;99.90;;;;;;5171374;28;20060;-73
2022/12/11 13:20:17;;;;;;;11.88;6.07;;;1.20;99.90;;;;;;5181950;28;20476;-71
2022/12/11 13:23:14;;;;;;;14.68;7.55;;;1.10;99.90;;;;;;5192008;28;20338;-72
2022/12/11 13:25:58;;;;;;;12.43;7.03;;;1.00;99.90;;;;;;5190290;28;20069;-72
2022/12/11 13:28:41;;;;;;;15.50;7.70;;;1.10;99.90;;;;;;5188954;28;20032;-70
2022/12/11 13:31:18;;;;;;;9.95;5.38;;;1.00;99.90;;;;;;5208687;28;20033;-71
2022/12/11 13:33:56;;;;;;;11.23;7.32;;;1.00;99.90;;;;;;5190547;28;20034;-71
2022/12/11 13:36:38;;;;;;;13.88;7.65;;;1.20;99.90;;;;;;5171425;28;20038;-71
2022/12/11 13:39:32;;;;;;;9.93;7.00;;;1.10;99.90;;;;;;5175082;28;20033;-74
2022/12/11 13:42:07;;;;;;;10.67;6.77;;;1.10;99.90;;;;;;5189582;28;20048;-72
2022/12/11 13:44:43;;;;;;;11.88;6.00;;;1.00;99.90;;;;;;5191874;28;20026;-70
2022/12/11 13:47:17;;;;;;;12.25;6.72;;;1.10;99.90;;;;;;5190870;28;20054;-70
2022/12/11 13:49:55;;;;;;;10.85;6.70;;;1.20;99.90;;;;;;5174720;28;20050;-72
2022/12/11 13:52:29;;;;;;;12.98;6.43;;;1.00;99.90;;;;;;5169981;28;20045;-72
2022/12/11 13:55:21;;;;;;;14.80;12.40;;;1.00;99.90;;;;;;5191851;28;20468;-72
2022/12/11 13:57:56;;;;;;;9.27;6.20;;;1.00;99.90;;;;;;5190902;28;20044;-72
2022/12/11 14:00:31;;;;;;;10.50;5.95;;;0.90;99.90;;;;;;5174918;28;20038;-72
2022/12/11 14:03:07;;;;;;;13.25;6.70;;;0.80;99.90;;;;;;5174110;28;20036;-72
2022/12/11 14:05:44;;;;;;;12.02;6.07;;;0.70;99.90;;;;;;5166648;28;20058;-73
2022/12/11 14:08:26;;;;;;;10.80;5.97;;;0.70;99.90;;;;;;5175207;28;20030;-72
2022/12/11 14:10:57;;;;;;;10.23;6.13;;;0.60;99.90;;;;;;5199952;28;20030;-72
2022/12/11 14:13:38;;;;;;;7.68;6.00;;;0.60;99.90;;;;;;5188343;28;20037;-72